createdAt,value
2022-12-25T00:00:26.845Z,91.78
2022-12-25T00:02:55.842Z,133.27
2022-12-25T00:05:25.739Z,110.75
2022-12-25T00:08:01.470Z,69.35
2022-12-25T00:10:32.412Z,115.45
2022-12-25T00:13:00.364Z,122.03
2022-12-25T00:15:28.805Z,90.18
2022-12-25T00:17:58.585Z,118.47
2022-12-25T00:20:30.543Z,80.90
2022-12-25T00:22:59.942Z,158.15
2022-12-25T00:25:27.852Z,104.50
2022-12-25T00:27:58.880Z,95.93
2022-12-25T00:30:35.624Z,107.45
2022-12-25T00:33:05.022Z,124.75
2022-12-25T00:35:32.924Z,64.82
2022-12-25T00:38:02.244Z,84.90
2022-12-25T00:40:30.267Z,72.50
2022-12-25T00:43:03.352Z,62.40
2022-12-25T00:45:31.349Z,69.90
2022-12-25T00:47:59.290Z,69.70
2022-12-25T00:50:27.290Z,71.43
2022-12-25T00:52:55.219Z,57.08
2022-12-25T00:55:24.509Z,54.33
2022-12-25T00:57:52.598Z,69.28
2022-12-25T01:00:20.926Z,67.28
2022-12-25T01:02:48.981Z,90.13
2022-12-25T01:05:17.161Z,68.38
2022-12-25T01:07:45.119Z,63.53
2022-12-25T01:10:23.987Z,80.55
2022-12-25T01:12:53.705Z,85.35
2022-12-25T01:15:21.958Z,82.13
2022-12-25T01:17:49.873Z,110.17
2022-12-25T01:20:19.464Z,111.32
2022-12-25T01:22:47.412Z,160.73
2022-12-25T01:25:15.415Z,96.30
2022-12-25T01:27:43.624Z,120.53
2022-12-25T01:30:13.621Z,111.07
2022-12-25T01:32:41.599Z,144.05
2022-12-25T01:35:10.012Z,134.27
2022-12-25T01:37:37.958Z,97.40
2022-12-25T01:40:08.995Z,143.98
2022-12-25T01:42:37.216Z,150.07
2022-12-25T01:45:35.956Z,159.50
2022-12-25T01:48:08.009Z,98.15
2022-12-25T01:50:38.123Z,174.05
2022-12-25T01:53:07.188Z,131.70
2022-12-25T01:55:37.291Z,163.02
2022-12-25T01:58:05.668Z,113.72
2022-12-25T02:00:35.405Z,108.87
2022-12-25T02:03:03.701Z,149.13
2022-12-25T02:05:33.697Z,134.47
2022-12-25T02:08:05.328Z,174.00
2022-12-25T02:10:33.581Z,137.68
2022-12-25T02:13:02.262Z,113.07
2022-12-25T02:15:40.035Z,136.68
2022-12-25T02:18:13.809Z,124.88
2022-12-25T02:20:53.953Z,124.43
2022-12-25T02:23:51.963Z,107.30
2022-12-25T02:26:46.218Z,121.63
2022-12-25T02:29:20.609Z,113.60
2022-12-25T02:31:55.309Z,95.53
2022-12-25T02:34:32.177Z,110.65
2022-12-25T02:37:07.696Z,122.07
2022-12-25T02:40:00.367Z,89.47
2022-12-25T02:42:53.000Z,93.70
2022-12-25T02:45:44.716Z,78.18
2022-12-25T02:48:32.130Z,107.72
2022-12-25T02:51:19.778Z,92.13
2022-12-25T02:54:10.122Z,116.15
2022-12-25T02:56:58.817Z,89.88
2022-12-25T02:59:47.749Z,77.15
2022-12-25T03:02:33.706Z,107.65
2022-12-25T03:05:22.742Z,94.20
2022-12-25T03:07:51.568Z,75.18
2022-12-25T03:10:38.333Z,111.15
2022-12-25T03:13:13.697Z,59.47
2022-12-25T03:15:59.200Z,90.95
2022-12-25T03:18:31.586Z,94.90
2022-12-25T03:21:17.730Z,68.38
2022-12-25T03:24:16.476Z,97.18
2022-12-25T03:26:57.541Z,98.85
2022-12-25T03:29:45.223Z,83.30
2022-12-25T03:32:21.239Z,76.50
2022-12-25T03:35:16.538Z,80.82
2022-12-25T03:38:17.432Z,67.82
2022-12-25T03:41:14.479Z,78.78
2022-12-25T03:44:08.327Z,75.32
2022-12-25T03:46:59.520Z,81.28
2022-12-25T03:50:04.092Z,87.68
2022-12-25T03:52:53.314Z,72.60
2022-12-25T03:55:41.023Z,73.88
2022-12-25T03:58:36.078Z,73.43
2022-12-25T04:01:21.391Z,71.28
2022-12-25T04:04:06.759Z,84.05
2022-12-25T04:06:52.056Z,69.53
2022-12-25T04:09:35.220Z,83.82
2022-12-25T04:12:20.674Z,96.60
2022-12-25T04:15:02.601Z,97.07
2022-12-25T04:17:48.025Z,82.72
2022-12-25T04:20:33.802Z,81.45
2022-12-25T04:23:19.082Z,61.28
2022-12-25T04:26:05.587Z,76.18
2022-12-25T04:28:50.811Z,93.80
2022-12-25T04:31:36.716Z,71.53
2022-12-25T04:34:21.996Z,66.05
2022-12-25T04:36:49.951Z,74.43
2022-12-25T04:39:18.116Z,77.05
2022-12-25T04:41:47.537Z,53.58
2022-12-25T04:44:15.629Z,60.80
2022-12-25T04:46:43.600Z,54.38
2022-12-25T04:49:11.640Z,56.95
2022-12-25T04:51:39.764Z,55.25
2022-12-25T04:54:07.772Z,53.70
2022-12-25T04:56:41.704Z,53.70
2022-12-25T04:59:14.841Z,46.30
2022-12-25T05:01:43.121Z,46.33
2022-12-25T05:04:11.201Z,47.97
2022-12-25T05:06:39.123Z,48.17
2022-12-25T05:09:07.201Z,45.72
2022-12-25T05:11:35.148Z,45.22
2022-12-25T05:14:03.057Z,49.47
2022-12-25T05:16:32.617Z,46.17
2022-12-25T05:19:00.580Z,47.85
2022-12-25T05:21:28.511Z,51.22
2022-12-25T05:23:56.540Z,47.38
2022-12-25T05:26:27.322Z,47.83
2022-12-25T05:28:56.088Z,50.00
2022-12-25T05:31:24.319Z,51.22
2022-12-25T05:33:54.019Z,52.53
2022-12-25T05:36:21.988Z,50.05
2022-12-25T05:38:49.962Z,49.33
2022-12-25T05:41:18.004Z,50.72
2022-12-25T05:43:46.004Z,49.13
2022-12-25T05:46:14.505Z,48.50
2022-12-25T05:48:43.027Z,50.63
2022-12-25T05:51:14.727Z,50.00
2022-12-25T05:53:43.840Z,50.80
2022-12-25T05:56:12.295Z,51.08
2022-12-25T05:58:41.304Z,53.20
2022-12-25T06:01:13.153Z,59.92
2022-12-25T06:03:41.360Z,60.95
2022-12-25T06:06:09.527Z,62.00
2022-12-25T06:08:39.121Z,61.35
2022-12-25T06:11:08.702Z,61.47
2022-12-25T06:13:37.635Z,56.10
2022-12-25T06:16:08.021Z,58.35
2022-12-25T06:18:36.977Z,54.65
2022-12-25T06:21:07.887Z,59.00
2022-12-25T06:23:36.229Z,50.42
2022-12-25T06:26:07.291Z,57.35
2022-12-25T06:28:35.449Z,64.80
2022-12-25T06:31:07.415Z,55.63
2022-12-25T06:33:35.410Z,52.85
2022-12-25T06:36:07.007Z,47.75
2022-12-25T06:38:35.228Z,47.08
2022-12-25T06:41:11.711Z,47.80
2022-12-25T06:43:40.121Z,50.28
2022-12-25T06:46:10.138Z,49.28
2022-12-25T06:48:39.588Z,44.90
2022-12-25T06:51:08.309Z,43.50
2022-12-25T06:53:40.146Z,45.90
2022-12-25T06:56:15.395Z,45.40
2022-12-25T06:58:45.024Z,44.90
2022-12-25T07:01:19.651Z,46.35
2022-12-25T07:03:49.335Z,46.90
2022-12-25T07:06:17.342Z,47.58
2022-12-25T07:08:45.389Z,50.13
2022-12-25T07:11:14.713Z,48.92
2022-12-25T07:13:42.659Z,48.00
2022-12-25T07:16:12.435Z,44.53
2022-12-25T07:18:40.569Z,50.13
2022-12-25T07:21:09.904Z,46.45
2022-12-25T07:23:38.593Z,45.85
2022-12-25T07:26:07.221Z,42.50
2022-12-25T07:28:36.580Z,42.88
2022-12-25T07:31:06.097Z,38.88
2022-12-25T07:33:35.042Z,41.83
2022-12-25T07:36:03.497Z,44.03
2022-12-25T07:38:31.816Z,36.88
2022-12-25T07:40:59.809Z,37.17
2022-12-25T07:43:28.228Z,37.92
2022-12-25T07:45:58.779Z,37.90
2022-12-25T07:48:27.347Z,38.88
2022-12-25T07:50:59.405Z,38.95
2022-12-25T07:53:27.624Z,34.25
2022-12-25T07:56:00.803Z,36.20
2022-12-25T07:58:28.876Z,37.33
2022-12-25T08:01:04.389Z,36.50
2022-12-25T08:03:32.722Z,34.75
2022-12-25T08:06:01.864Z,31.70
2022-12-25T08:08:31.483Z,29.25
2022-12-25T08:10:59.740Z,29.02
2022-12-25T08:13:27.803Z,27.52
2022-12-25T08:15:59.984Z,25.90
2022-12-25T08:18:30.255Z,28.13
2022-12-25T08:21:02.960Z,25.67
2022-12-25T08:23:30.926Z,24.30
2022-12-25T08:26:05.085Z,24.95
2022-12-25T08:28:35.317Z,24.17
2022-12-25T08:31:10.067Z,24.52
2022-12-25T08:33:38.679Z,27.52
2022-12-25T08:36:08.614Z,29.05
2022-12-25T08:38:37.061Z,27.50
2022-12-25T08:41:06.948Z,26.98
2022-12-25T08:43:35.313Z,24.52
2022-12-25T08:46:03.456Z,24.38
2022-12-25T08:48:33.247Z,23.70
2022-12-25T08:51:01.980Z,24.55
2022-12-25T08:53:29.982Z,23.20
2022-12-25T08:55:59.786Z,25.35
2022-12-25T08:58:28.722Z,25.48
2022-12-25T09:03:25.105Z,24.63
2022-12-25T09:05:55.289Z,25.60
2022-12-25T09:08:23.371Z,27.95
2022-12-25T09:10:51.319Z,27.43
2022-12-25T09:13:19.356Z,30.17
2022-12-25T09:15:47.458Z,30.03
2022-12-25T09:18:15.520Z,29.43
2022-12-25T09:20:43.432Z,28.02
2022-12-25T09:23:14.398Z,29.13
2022-12-25T09:25:42.519Z,28.77
2022-12-25T09:28:10.430Z,28.67
2022-12-25T09:30:38.406Z,27.40
2022-12-25T09:33:07.124Z,26.10
2022-12-25T09:35:35.133Z,28.05
2022-12-25T09:38:03.212Z,25.40
2022-12-25T09:40:33.891Z,25.42
2022-12-25T09:43:03.955Z,25.30
2022-12-25T09:45:36.939Z,27.70
2022-12-25T09:48:05.586Z,30.38
2022-12-25T09:50:43.807Z,27.17
2022-12-25T09:53:16.940Z,28.05
2022-12-25T09:55:54.073Z,33.28
2022-12-25T09:58:22.129Z,29.95
2022-12-25T10:00:59.703Z,27.67
2022-12-25T10:03:59.577Z,30.75
2022-12-25T10:06:35.930Z,30.13
2022-12-25T10:09:17.497Z,28.83
2022-12-25T10:12:00.879Z,35.85
2022-12-25T10:14:37.624Z,36.17
2022-12-25T10:17:24.809Z,37.50
2022-12-25T10:20:00.926Z,36.20
2022-12-25T10:22:34.653Z,35.10
2022-12-25T10:25:04.652Z,38.05
2022-12-25T10:27:38.212Z,33.83
2022-12-25T10:30:15.974Z,33.63
2022-12-25T10:32:45.523Z,36.13
2022-12-25T10:35:15.042Z,33.63
2022-12-25T10:37:44.569Z,33.00
2022-12-25T10:40:32.238Z,32.10
2022-12-25T10:43:08.934Z,33.78
2022-12-25T10:45:44.869Z,32.50
2022-12-25T10:48:21.652Z,32.22
2022-12-25T10:50:50.335Z,32.47
2022-12-25T10:53:22.397Z,31.20
2022-12-25T10:55:58.808Z,27.90
2022-12-25T10:58:28.898Z,29.92
2022-12-25T11:01:00.088Z,31.45
2022-12-25T11:03:31.355Z,29.05
2022-12-25T11:05:59.644Z,28.42
2022-12-25T11:08:29.981Z,28.45
2022-12-25T11:11:06.183Z,26.75
2022-12-25T11:13:40.619Z,27.90
2022-12-25T11:16:11.744Z,27.60
2022-12-25T11:18:48.667Z,28.10
2022-12-25T11:21:18.543Z,25.80
2022-12-25T11:23:49.787Z,26.48
2022-12-25T11:26:19.304Z,24.75
2022-12-25T11:28:51.343Z,27.02
2022-12-25T11:31:21.068Z,23.55
2022-12-25T11:33:54.996Z,23.25
2022-12-25T11:36:30.375Z,27.33
2022-12-25T11:39:06.011Z,26.52
2022-12-25T11:41:37.506Z,25.75
2022-12-25T11:44:17.069Z,27.63
2022-12-25T11:46:50.380Z,27.33
2022-12-25T11:49:21.401Z,25.00
2022-12-25T11:51:53.105Z,27.17
2022-12-25T11:54:26.461Z,26.20
2022-12-25T11:56:55.091Z,27.08
2022-12-25T12:02:01.249Z,22.60
2022-12-25T12:04:40.245Z,23.20
2022-12-25T12:07:21.908Z,20.73
2022-12-25T12:09:56.346Z,25.55
2022-12-25T12:12:33.387Z,30.70
2022-12-25T12:15:10.173Z,31.45
2022-12-25T12:17:38.236Z,32.10
2022-12-25T12:20:13.485Z,32.45
2022-12-25T12:22:51.417Z,35.90
2022-12-25T12:25:20.008Z,35.42
2022-12-25T12:27:59.745Z,38.72
2022-12-25T12:30:35.857Z,35.70
2022-12-25T12:33:07.484Z,37.13
2022-12-25T12:35:38.292Z,40.50
2022-12-25T12:38:12.363Z,38.05
2022-12-25T12:40:42.758Z,35.97
2022-12-25T12:43:30.131Z,36.33
2022-12-25T12:46:05.267Z,36.35
2022-12-25T12:48:41.558Z,42.95
2022-12-25T12:51:11.612Z,33.90
2022-12-25T12:53:41.178Z,31.23
2022-12-25T12:56:16.280Z,23.23
2022-12-25T12:58:49.873Z,30.35
2022-12-25T13:01:43.655Z,32.65
2022-12-25T13:04:48.280Z,34.58
2022-12-25T13:07:33.037Z,34.88
2022-12-25T13:10:14.700Z,34.40
2022-12-25T13:12:42.786Z,35.83
2022-12-25T13:15:14.120Z,33.33
2022-12-25T13:17:48.056Z,33.05
2022-12-25T13:20:31.324Z,36.50
2022-12-25T13:22:59.317Z,34.58
2022-12-25T13:25:27.246Z,32.97
2022-12-25T13:27:59.689Z,33.03
2022-12-25T13:30:28.251Z,30.25
2022-12-25T13:33:00.169Z,31.50
2022-12-25T13:35:28.816Z,31.15
2022-12-25T13:37:57.761Z,33.22
2022-12-25T13:40:28.205Z,29.63
2022-12-25T13:42:59.189Z,31.73
2022-12-25T13:45:29.750Z,28.92
2022-12-25T13:48:00.113Z,32.38
2022-12-25T13:50:30.510Z,33.88
2022-12-25T13:53:12.386Z,33.40
2022-12-25T13:55:42.854Z,34.45
2022-12-25T13:58:23.824Z,36.38
2022-12-25T14:00:55.697Z,39.55
2022-12-25T14:03:31.554Z,40.35
2022-12-25T14:06:01.706Z,42.08
2022-12-25T14:08:32.238Z,43.83
2022-12-25T14:11:03.766Z,47.47
2022-12-25T14:13:33.899Z,47.97
2022-12-25T14:16:02.605Z,49.38
2022-12-25T14:18:32.237Z,45.08
2022-12-25T14:21:03.517Z,47.00
2022-12-25T14:23:40.579Z,42.85
2022-12-25T14:26:08.775Z,57.92
2022-12-25T14:28:37.768Z,55.30
2022-12-25T14:31:06.242Z,49.10
2022-12-25T14:33:39.607Z,48.90
2022-12-25T14:36:08.525Z,48.72
2022-12-25T14:41:07.594Z,48.70
2022-12-25T14:43:36.499Z,49.65
2022-12-25T14:46:06.970Z,51.13
2022-12-25T14:48:36.500Z,53.92
2022-12-25T14:51:07.187Z,54.63
2022-12-25T14:53:39.387Z,54.42
2022-12-25T14:56:09.074Z,57.83
2022-12-25T14:58:42.749Z,52.60
2022-12-25T15:01:22.058Z,55.28
2022-12-25T15:03:51.732Z,57.70
2022-12-25T15:06:22.429Z,58.88
2022-12-25T15:08:57.812Z,57.17
2022-12-25T15:11:25.854Z,59.63
2022-12-25T15:13:53.906Z,59.57
2022-12-25T15:16:24.352Z,55.13
2022-12-25T15:18:54.863Z,54.13
2022-12-25T15:21:26.800Z,56.65
2022-12-25T15:23:55.637Z,54.70
2022-12-25T15:26:24.027Z,56.90
2022-12-25T15:28:52.426Z,58.28
2022-12-25T15:31:23.463Z,58.08
2022-12-25T15:33:54.148Z,58.35
2022-12-25T15:36:22.437Z,57.78
2022-12-25T15:38:51.212Z,63.33
2022-12-25T15:41:36.821Z,60.53
2022-12-25T15:44:06.615Z,65.13
2022-12-25T15:46:35.271Z,65.68
2022-12-25T15:49:05.592Z,67.63
2022-12-25T15:51:34.065Z,68.60
2022-12-25T15:54:02.071Z,69.75
2022-12-25T15:56:31.146Z,70.30
2022-12-25T16:01:26.862Z,73.32
2022-12-25T16:03:55.034Z,80.33
2022-12-25T16:06:24.518Z,80.90
2022-12-25T16:08:52.425Z,77.68
2022-12-25T16:11:20.383Z,81.03
2022-12-25T16:13:48.388Z,86.28
2022-12-25T16:16:16.452Z,90.43
2022-12-25T16:18:47.658Z,92.05
2022-12-25T16:21:18.753Z,92.88
2022-12-25T16:23:48.317Z,84.78
2022-12-25T16:26:16.358Z,91.47
2022-12-25T16:28:44.444Z,87.50
2022-12-25T16:31:13.144Z,86.68
2022-12-25T16:33:41.210Z,88.38
2022-12-25T16:36:09.966Z,85.72
2022-12-25T16:38:38.510Z,88.20
2022-12-25T16:41:09.245Z,88.20
2022-12-25T16:43:37.239Z,89.68
2022-12-25T16:46:10.129Z,87.93
2022-12-25T16:48:38.257Z,88.05
2022-12-25T16:51:09.858Z,79.47
2022-12-25T16:53:37.927Z,82.78
2022-12-25T16:56:08.690Z,85.25
2022-12-25T16:58:36.693Z,87.93
2022-12-25T17:01:08.839Z,86.53
2022-12-25T17:03:36.976Z,89.25
2022-12-25T17:06:05.763Z,87.07
2022-12-25T17:08:33.763Z,83.97
2022-12-25T17:11:05.113Z,90.45
2022-12-25T17:13:35.306Z,87.55
2022-12-25T17:16:13.540Z,95.63
2022-12-25T17:18:41.498Z,87.88
2022-12-25T17:21:09.646Z,95.78
2022-12-25T17:23:38.251Z,87.50
2022-12-25T17:26:07.184Z,88.57
2022-12-25T17:28:36.548Z,88.10
2022-12-25T17:31:05.036Z,84.80
2022-12-25T17:33:33.821Z,84.97
2022-12-25T17:36:06.160Z,83.45
2022-12-25T17:38:35.002Z,82.35
2022-12-25T17:41:05.605Z,81.78
2022-12-25T17:43:34.126Z,75.72
2022-12-25T17:46:07.154Z,72.18
2022-12-25T17:48:36.461Z,74.05
2022-12-25T17:51:05.669Z,73.22
2022-12-25T17:53:35.967Z,67.93
2022-12-25T17:56:04.066Z,66.57
2022-12-25T17:58:32.106Z,73.15
2022-12-25T18:01:08.042Z,72.07
2022-12-25T18:03:36.870Z,70.10
2022-12-25T18:06:05.624Z,70.15
2022-12-25T18:08:38.959Z,68.38
2022-12-25T18:11:10.315Z,61.08
2022-12-25T18:13:40.545Z,61.97
2022-12-25T18:16:10.569Z,58.75
2022-12-25T18:18:38.537Z,58.58
2022-12-25T18:21:06.791Z,61.92
2022-12-25T18:23:35.126Z,57.60
2022-12-25T18:26:03.619Z,57.20
2022-12-25T18:28:32.011Z,54.05
2022-12-25T18:31:00.454Z,51.47
2022-12-25T18:33:29.854Z,52.67
2022-12-25T18:35:59.134Z,52.10
2022-12-25T18:38:28.594Z,50.50
2022-12-25T18:40:57.034Z,47.60
2022-12-25T18:43:51.541Z,50.50
2022-12-25T18:46:13.472Z,52.13
2022-12-25T18:48:42.906Z,47.60
2022-12-25T18:51:14.547Z,53.38
2022-12-25T18:53:42.994Z,58.63
2022-12-25T18:56:13.459Z,71.82
2022-12-25T18:58:41.721Z,63.33
2022-12-25T19:01:15.312Z,49.55
2022-12-25T19:03:45.839Z,50.10
2022-12-25T19:06:18.369Z,49.55
2022-12-25T19:08:46.972Z,46.33
2022-12-25T19:11:15.068Z,48.30
2022-12-25T19:13:43.445Z,45.78
2022-12-25T19:16:12.100Z,44.58
2022-12-25T19:18:40.497Z,36.55
2022-12-25T19:21:11.161Z,41.45
2022-12-25T19:23:40.010Z,39.70
2022-12-25T19:26:09.590Z,35.97
2022-12-25T19:28:38.677Z,34.03
2022-12-25T19:33:38.423Z,28.23
2022-12-25T19:36:10.739Z,29.92
2022-12-25T19:38:38.768Z,29.67
2022-12-25T19:41:07.792Z,27.48
2022-12-25T19:43:37.856Z,29.13
2022-12-25T19:46:07.115Z,29.92
2022-12-25T19:48:35.909Z,28.38
2022-12-25T19:51:03.903Z,31.88
2022-12-25T19:53:33.231Z,27.10
2022-12-25T19:56:03.359Z,32.70
2022-12-25T19:58:31.348Z,28.77
2022-12-25T20:00:59.983Z,28.52
2022-12-25T20:03:28.405Z,29.60
2022-12-25T20:05:56.611Z,33.25
2022-12-25T20:08:25.364Z,27.52
2022-12-25T20:10:54.674Z,30.45
2022-12-25T20:13:22.685Z,26.98
2022-12-25T20:15:51.284Z,29.00
2022-12-25T20:18:20.752Z,30.95
2022-12-25T20:20:48.709Z,27.92
2022-12-25T20:23:16.673Z,29.70
2022-12-25T20:25:44.639Z,28.83
2022-12-25T20:28:14.797Z,29.40
2022-12-25T20:30:42.946Z,30.40
2022-12-25T20:33:11.148Z,26.13
2022-12-25T20:35:39.152Z,29.50
2022-12-25T20:38:07.546Z,81.05
2022-12-25T20:40:59.936Z,62.33
2022-12-25T20:43:24.942Z,31.90
2022-12-25T20:45:53.464Z,42.42
2022-12-25T20:48:21.477Z,54.22
2022-12-25T20:50:50.998Z,35.08
2022-12-25T20:53:19.567Z,39.93
2022-12-25T20:55:48.944Z,51.42
2022-12-25T20:58:18.213Z,47.88
2022-12-25T21:00:47.736Z,45.35
2022-12-25T21:03:15.819Z,38.65
2022-12-25T21:05:50.710Z,30.92
2022-12-25T21:08:18.767Z,25.83
2022-12-25T21:10:50.510Z,29.45
2022-12-25T21:13:19.116Z,31.58
2022-12-25T21:15:49.710Z,28.48
2022-12-25T21:18:19.062Z,26.92
2022-12-25T21:20:48.968Z,22.35
2022-12-25T21:23:17.510Z,23.33
2022-12-25T21:25:46.139Z,24.77
2022-12-25T21:28:14.520Z,21.42
2022-12-25T21:30:42.736Z,23.23
2022-12-25T21:33:39.000Z,25.10
2022-12-25T21:36:08.627Z,31.55
2022-12-25T21:38:37.741Z,33.13
2022-12-25T21:43:34.687Z,33.92
2022-12-25T21:46:04.376Z,28.63
2022-12-25T21:48:35.349Z,22.80
2022-12-25T21:51:21.349Z,23.73
2022-12-25T21:53:49.529Z,20.00
2022-12-25T21:56:17.823Z,21.00
2022-12-25T21:58:47.161Z,22.77
2022-12-25T22:01:16.723Z,23.77
2022-12-25T22:03:46.368Z,23.73
2022-12-25T22:06:31.502Z,22.63
2022-12-25T22:08:59.424Z,22.75
2022-12-25T22:11:45.266Z,24.67
2022-12-25T22:14:51.008Z,22.23
2022-12-25T22:17:42.719Z,23.70
2022-12-25T22:20:14.852Z,31.23
2022-12-25T22:22:42.952Z,36.42
2022-12-25T22:25:12.018Z,35.15
2022-12-25T22:30:10.473Z,42.95
2022-12-25T22:32:38.512Z,56.78
2022-12-25T22:35:07.456Z,64.68
2022-12-25T22:37:37.279Z,71.80
2022-12-25T22:40:07.384Z,64.72
2022-12-25T22:42:35.499Z,64.13
2022-12-25T22:45:03.763Z,63.63
2022-12-25T22:47:31.864Z,59.17
2022-12-25T22:49:59.896Z,46.97
2022-12-25T22:52:28.166Z,51.20
2022-12-25T22:54:57.590Z,51.00
2022-12-25T22:57:26.634Z,45.90
2022-12-25T22:59:54.674Z,46.53
2022-12-25T23:02:23.362Z,49.28
2022-12-25T23:05:00.562Z,42.38
2022-12-25T23:07:30.521Z,43.75
2022-12-25T23:10:02.469Z,50.55
2022-12-25T23:13:02.391Z,55.63
2022-12-25T23:15:33.416Z,55.58
2022-12-25T23:18:17.954Z,52.40
2022-12-25T23:21:03.564Z,54.03
2022-12-25T23:24:04.389Z,51.05
2022-12-25T23:26:35.188Z,57.17
2022-12-25T23:29:20.872Z,56.38
2022-12-25T23:31:53.723Z,49.90
2022-12-25T23:34:22.410Z,51.25
2022-12-25T23:36:50.372Z,49.60
2022-12-25T23:39:23.244Z,51.17
2022-12-25T23:41:52.718Z,51.53
2022-12-25T23:44:23.334Z,47.50
2022-12-25T23:46:54.226Z,47.40
2022-12-25T23:49:26.216Z,47.65
2022-12-25T23:51:55.516Z,44.85
2022-12-25T23:54:30.985Z,35.78
2022-12-25T23:57:00.814Z,33.22
2022-12-25T23:59:45.271Z,37.20
